Time,TemperatureF,DewpointF,PressureIn,WindDirection,WindDirectionDegrees,WindSpeedMPH,WindSpeedGustMPH,Humidity,HourlyPrecipIn,Conditions,Clouds,dailyrainin,SoftwareType,DateUTC
2013-11-13 00:03:00,39.8,32.0,30.21,WSW,245,0.0,2.0,74,0.00,,,0.00,weatherlink.com 1.10,2013-11-13 07:03:00,
2013-11-13 00:18:00,40.6,32.0,30.21,West,264,1.0,3.0,72,0.00,,,0.00,weatherlink.com 1.10,2013-11-13 07:18:00,
2013-11-13 00:33:00,40.4,32.0,30.21,WSW,257,2.0,2.0,72,0.00,,,0.00,weatherlink.com 1.10,2013-11-13 07:33:00,
2013-11-13 00:48:00,40.3,32.0,30.21,West,272,2.0,3.0,72,0.00,,,0.00,weatherlink.com 1.10,2013-11-13 07:48:00,
2013-11-13 01:03:00,39.7,32.0,30.21,WNW,302,3.0,3.0,73,0.00,,,0.00,weatherlink.com 1.10,2013-11-13 08:03:00,
2013-11-13 01:18:00,40.6,32.0,30.20,West,265,1.0,3.0,72,0.00,,,0.00,weatherlink.com 1.10,2013-11-13 08:18:00,
2013-11-13 01:33:00,41.4,32.0,30.20,West,278,1.0,3.0,69,0.00,,,0.00,weatherlink.com 1.10,2013-11-13 08:33:00,
2013-11-13 01:48:00,38.3,31.0,30.19,West,277,3.0,4.0,75,0.00,,,0.00,weatherlink.com 1.10,2013-11-13 08:48:00,
2013-11-13 02:04:00,40.0,32.0,30.19,West,262,2.0,4.0,72,0.00,,,0.00,weatherlink.com 1.10,2013-11-13 09:04:00,
2013-11-13 02:19:00,39.3,32.0,30.18,WNW,298,1.0,3.0,74,0.00,,,0.00,weatherlink.com 1.10,2013-11-13 09:19:00,
2013-11-13 02:34:00,39.3,32.0,30.18,WSW,238,1.0,2.0,74,0.00,,,0.00,weatherlink.com 1.10,2013-11-13 09:34:00,
2013-11-13 02:49:00,41.8,32.0,30.17,WNW,291,3.0,3.0,69,0.00,,,0.00,weatherlink.com 1.10,2013-11-13 09:49:00,
2013-11-13 03:04:00,41.4,32.0,30.17,WSW,238,2.0,3.0,70,0.00,,,0.00,weatherlink.com 1.10,2013-11-13 10:04:00,
2013-11-13 03:19:00,42.5,33.0,30.16,North,349,3.0,3.0,69,0.00,,,0.00,weatherlink.com 1.10,2013-11-13 10:19:00,
2013-11-13 03:34:00,45.4,33.0,30.16,NW,314,2.0,2.0,63,0.00,,,0.00,weatherlink.com 1.10,2013-11-13 10:34:00,
2013-11-13 03:49:00,43.6,34.0,30.17,East,83,4.0,5.0,68,0.00,,,0.00,weatherlink.com 1.10,2013-11-13 10:49:00,
2013-11-13 04:04:00,40.3,33.0,30.16,SSE,151,3.0,3.0,76,0.00,,,0.00,weatherlink.com 1.10,2013-11-13 11:04:00,
2013-11-13 04:19:00,40.8,34.0,30.17,WNW,285,1.0,5.0,76,0.00,,,0.00,weatherlink.com 1.10,2013-11-13 11:19:00,
2013-11-13 04:34:00,42.6,34.0,30.17,WNW,301,3.0,3.0,71,0.00,,,0.00,weatherlink.com 1.10,2013-11-13 11:34:00,
2013-11-13 04:49:00,42.3,34.0,30.15,NW,314,1.0,1.0,72,0.00,,,0.00,weatherlink.com 1.10,2013-11-13 11:49:00,
2013-11-13 05:04:00,42.3,34.0,30.16,NW,310,2.0,3.0,72,0.00,,,0.00,weatherlink.com 1.10,2013-11-13 12:04:00,
2013-11-13 05:19:00,43.5,34.0,30.14,NW,317,0.0,3.0,70,0.00,,,0.00,weatherlink.com 1.10,2013-11-13 12:19:00,
2013-11-13 05:34:00,42.1,34.0,30.15,West,271,0.0,2.0,73,0.00,,,0.00,weatherlink.com 1.10,2013-11-13 12:34:00,
2013-11-13 05:49:00,42.4,34.0,30.16,SE,126,3.0,3.0,73,0.00,,,0.00,weatherlink.com 1.10,2013-11-13 12:49:00,
2013-11-13 06:04:00,43.1,35.0,30.16,WSW,252,2.0,4.0,72,0.00,,,0.00,weatherlink.com 1.10,2013-11-13 13:04:00,
2013-11-13 06:19:00,43.7,35.0,30.16,West,270,2.0,3.0,71,0.00,,,0.00,weatherlink.com 1.10,2013-11-13 13:19:00,
2013-11-13 06:34:00,43.3,35.0,30.16,WSW,242,3.0,6.0,73,0.00,,,0.00,weatherlink.com 1.10,2013-11-13 13:34:00,
2013-11-13 06:49:00,44.3,35.0,30.16,SW,236,1.0,5.0,70,0.00,,,0.00,weatherlink.com 1.10,2013-11-13 13:49:00,
2013-11-13 07:04:00,45.8,35.0,30.14,SW,226,0.0,4.0,66,0.00,,,0.00,weatherlink.com 1.10,2013-11-13 14:04:00,
2013-11-13 07:19:00,46.1,35.0,30.13,NNW,327,1.0,4.0,65,0.00,,,0.00,weatherlink.com 1.10,2013-11-13 14:19:00,
2013-11-13 07:34:00,44.3,36.0,30.13,WNW,297,3.0,6.0,73,0.00,,,0.00,weatherlink.com 1.10,2013-11-13 14:34:00,
2013-11-13 07:49:00,44.7,36.0,30.13,WNW,290,2.0,6.0,71,0.00,,,0.00,weatherlink.com 1.10,2013-11-13 14:49:00,
2013-11-13 08:04:00,46.1,36.0,30.14,WSW,257,2.0,5.0,67,0.00,,,0.00,weatherlink.com 1.10,2013-11-13 15:04:00,
2013-11-13 08:19:00,48.1,35.0,30.13,WSW,252,3.0,5.0,61,0.00,,,0.00,weatherlink.com 1.10,2013-11-13 15:19:00,
2013-11-13 08:34:00,48.5,35.0,30.13,West,266,3.0,6.0,61,0.00,,,0.00,weatherlink.com 1.10,2013-11-13 15:34:00,
2013-11-13 08:49:00,49.1,36.0,30.14,WNW,282,3.0,6.0,62,0.00,,,0.00,weatherlink.com 1.10,2013-11-13 15:49:00,
2013-11-13 09:04:00,49.7,36.0,30.13,WSW,246,4.0,7.0,60,0.00,,,0.00,weatherlink.com 1.10,2013-11-13 16:04:00,
2013-11-13 09:19:00,49.7,36.0,30.13,WSW,257,3.0,7.0,60,0.00,,,0.00,weatherlink.com 1.10,2013-11-13 16:19:00,
2013-11-13 09:34:00,50.2,37.0,30.13,WSW,257,2.0,8.0,60,0.00,,,0.00,weatherlink.com 1.10,2013-11-13 16:34:00,
2013-11-13 09:49:00,51.0,36.0,30.13,WSW,246,3.0,6.0,57,0.00,,,0.00,weatherlink.com 1.10,2013-11-13 16:49:00,
2013-11-13 10:04:00,51.3,37.0,30.12,West,274,1.0,4.0,59,0.00,,,0.00,weatherlink.com 1.10,2013-11-13 17:04:00,
2013-11-13 10:19:00,53.1,38.0,30.11,WNW,282,3.0,3.0,57,0.00,,,0.00,weatherlink.com 1.10,2013-11-13 17:19:00,
2013-11-13 10:35:00,53.6,38.0,30.10,NW,311,1.0,3.0,56,0.00,,,0.00,weatherlink.com 1.10,2013-11-13 17:35:00,
2013-11-13 10:50:00,53.9,38.0,30.10,WNW,293,3.0,4.0,55,0.00,,,0.00,weatherlink.com 1.10,2013-11-13 17:50:00,
2013-11-13 11:05:00,55.1,38.0,30.09,WNW,282,4.0,8.0,53,0.00,,,0.00,weatherlink.com 1.10,2013-11-13 18:05:00,
2013-11-13 11:20:00,56.0,37.0,30.08,WNW,282,5.0,9.0,50,0.00,,,0.00,weatherlink.com 1.10,2013-11-13 18:20:00,
2013-11-13 11:35:00,56.5,37.0,30.07,West,263,7.0,11.0,49,0.00,,,0.00,weatherlink.com 1.10,2013-11-13 18:35:00,
2013-11-13 11:50:00,56.8,35.0,30.06,West,264,7.0,9.0,45,0.00,,,0.00,weatherlink.com 1.10,2013-11-13 18:50:00,
2013-11-13 12:05:00,56.7,36.0,30.05,WSW,248,5.0,9.0,47,0.00,,,0.00,weatherlink.com 1.10,2013-11-13 19:05:00,
2013-11-13 12:20:00,58.0,38.0,30.03,West,269,6.0,9.0,47,0.00,,,0.00,weatherlink.com 1.10,2013-11-13 19:20:00,
2013-11-13 12:35:00,58.3,37.0,30.02,West,279,6.0,10.0,46,0.00,,,0.00,weatherlink.com 1.10,2013-11-13 19:35:00,
2013-11-13 12:50:00,59.1,36.0,30.01,West,260,7.0,11.0,42,0.00,,,0.00,weatherlink.com 1.10,2013-11-13 19:50:00,
2013-11-13 13:05:00,61.7,35.0,30.00,NW,308,14.0,15.0,37,0.00,,,0.00,weatherlink.com 1.10,2013-11-13 20:05:00,
2013-11-13 13:20:00,62.6,32.0,29.99,NW,315,20.0,24.0,32,0.00,,,0.00,weatherlink.com 1.10,2013-11-13 20:20:00,
2013-11-13 13:35:00,62.0,32.0,29.99,NW,315,12.0,20.0,32,0.00,,,0.00,weatherlink.com 1.10,2013-11-13 20:35:00,
2013-11-13 13:50:00,62.3,33.0,29.98,NW,315,11.0,16.0,33,0.00,,,0.00,weatherlink.com 1.10,2013-11-13 20:50:00,
2013-11-13 14:05:00,61.8,29.0,29.98,NW,310,22.0,26.0,29,0.00,,,0.00,weatherlink.com 1.10,2013-11-13 21:05:00,
2013-11-13 14:20:00,61.3,29.0,29.98,WNW,303,15.0,21.0,30,0.00,,,0.00,weatherlink.com 1.10,2013-11-13 21:20:00,
2013-11-13 14:35:00,61.7,30.0,29.98,NW,318,12.0,19.0,30,0.00,,,0.00,weatherlink.com 1.10,2013-11-13 21:35:00,
2013-11-13 14:50:00,61.6,31.0,29.97,NW,305,13.0,21.0,32,0.00,,,0.00,weatherlink.com 1.10,2013-11-13 21:50:00,
2013-11-13 15:05:00,61.3,31.0,29.97,NNW,334,10.0,20.0,32,0.00,,,0.00,weatherlink.com 1.10,2013-11-13 22:05:00,
2013-11-13 15:20:00,61.2,31.0,29.97,NW,320,10.0,17.0,32,0.00,,,0.00,weatherlink.com 1.10,2013-11-13 22:20:00,
2013-11-13 15:35:00,60.7,30.0,29.97,NNW,336,6.0,15.0,32,0.00,,,0.00,weatherlink.com 1.10,2013-11-13 22:35:00,
2013-11-13 15:50:00,59.4,31.0,29.96,NNW,342,3.0,9.0,34,0.00,,,0.00,weatherlink.com 1.10,2013-11-13 22:50:00,
2013-11-13 16:05:00,57.7,32.0,29.97,North,354,2.0,8.0,38,0.00,,,0.00,weatherlink.com 1.10,2013-11-13 23:05:00,
2013-11-13 16:20:00,56.5,33.0,29.98,NNE,30,0.0,2.0,42,0.00,,,0.00,weatherlink.com 1.10,2013-11-13 23:20:00,
2013-11-13 16:35:00,54.5,33.0,29.98,SSE,165,0.0,4.0,44,0.00,,,0.00,weatherlink.com 1.10,2013-11-13 23:35:00,
2013-11-13 16:50:00,51.7,32.0,29.99,NW,304,0.0,4.0,48,0.00,,,0.00,weatherlink.com 1.10,2013-11-13 23:50:00,
2013-11-13 17:05:00,51.0,33.0,30.00,East,97,0.0,2.0,51,0.00,,,0.00,weatherlink.com 1.10,2013-11-14 00:05:00,
2013-11-13 17:20:00,48.4,33.0,30.00,SE,143,1.0,3.0,55,0.00,,,0.00,weatherlink.com 1.10,2013-11-14 00:20:00,
2013-11-13 17:35:00,46.5,33.0,30.01,SE,138,0.0,4.0,60,0.00,,,0.00,weatherlink.com 1.10,2013-11-14 00:35:00,
2013-11-13 17:50:00,46.6,33.0,30.02,NNE,25,2.0,4.0,60,0.00,,,0.00,weatherlink.com 1.10,2013-11-14 00:50:00,
2013-11-13 18:05:00,46.3,33.0,30.02,WSW,240,1.0,1.0,61,0.00,,,0.00,weatherlink.com 1.10,2013-11-14 01:05:00,
2013-11-13 18:20:00,44.1,32.0,30.02,SSE,156,1.0,2.0,62,0.00,,,0.00,weatherlink.com 1.10,2013-11-14 01:20:00,
2013-11-13 18:35:00,41.3,31.0,30.03,South,177,2.0,3.0,68,0.00,,,0.00,weatherlink.com 1.10,2013-11-14 01:35:00,
2013-11-13 18:50:00,41.6,31.0,30.03,WSW,248,2.0,4.0,67,0.00,,,0.00,weatherlink.com 1.10,2013-11-14 01:50:00,
2013-11-13 19:05:00,41.9,32.0,30.03,West,264,1.0,2.0,67,0.00,,,0.00,weatherlink.com 1.10,2013-11-14 02:05:00,
2013-11-13 19:20:00,41.9,32.0,30.03,NW,324,0.0,4.0,67,0.00,,,0.00,weatherlink.com 1.10,2013-11-14 02:20:00,
2013-11-13 19:35:00,41.7,31.0,30.04,WSW,245,0.0,1.0,67,0.00,,,0.00,weatherlink.com 1.10,2013-11-14 02:35:00,
2013-11-13 19:50:00,40.9,33.0,30.04,WSW,251,2.0,5.0,72,0.00,,,0.00,weatherlink.com 1.10,2013-11-14 02:50:00,
2013-11-13 20:06:00,40.8,33.0,30.04,WNW,288,1.0,1.0,73,0.00,,,0.00,weatherlink.com 1.10,2013-11-14 03:06:00,
2013-11-13 20:21:00,41.1,33.0,30.05,WNW,289,4.0,4.0,73,0.00,,,0.00,weatherlink.com 1.10,2013-11-14 03:21:00,
2013-11-13 20:36:00,41.3,32.0,30.05,West,279,0.0,2.0,70,0.00,,,0.00,weatherlink.com 1.10,2013-11-14 03:36:00,
2013-11-13 20:51:00,41.6,31.0,30.06,West,266,1.0,4.0,67,0.00,,,0.00,weatherlink.com 1.10,2013-11-14 03:51:00,
2013-11-13 21:06:00,40.9,31.0,30.06,West,259,1.0,3.0,67,0.00,,,0.00,weatherlink.com 1.10,2013-11-14 04:06:00,
2013-11-13 21:21:00,39.1,30.0,30.06,West,276,1.0,3.0,70,0.00,,,0.00,weatherlink.com 1.10,2013-11-14 04:21:00,
2013-11-13 21:36:00,40.1,30.0,30.06,WNW,292,3.0,5.0,67,0.00,,,0.00,weatherlink.com 1.10,2013-11-14 04:36:00,
2013-11-13 21:51:00,40.3,30.0,30.07,NNW,328,1.0,3.0,68,0.00,,,0.00,weatherlink.com 1.10,2013-11-14 04:51:00,
2013-11-13 22:06:00,39.7,29.0,30.07,West,261,1.0,3.0,66,0.00,,,0.00,weatherlink.com 1.10,2013-11-14 05:06:00,
2013-11-13 22:21:00,39.1,29.0,30.07,WSW,252,2.0,3.0,67,0.00,,,0.00,weatherlink.com 1.10,2013-11-14 05:21:00,
2013-11-13 22:36:00,41.3,28.0,30.07,West,264,6.0,10.0,59,0.00,,,0.00,weatherlink.com 1.10,2013-11-14 05:36:00,
2013-11-13 22:51:00,42.9,27.0,30.07,WSW,250,4.0,7.0,54,0.00,,,0.00,weatherlink.com 1.10,2013-11-14 05:51:00,
2013-11-13 23:06:00,43.3,27.0,30.07,WSW,253,6.0,12.0,54,0.00,,,0.00,weatherlink.com 1.10,2013-11-14 06:06:00,
2013-11-13 23:21:00,43.0,27.0,30.07,WSW,238,3.0,10.0,54,0.00,,,0.00,weatherlink.com 1.10,2013-11-14 06:21:00,
2013-11-13 23:36:00,42.7,27.0,30.07,WSW,242,7.0,10.0,55,0.00,,,0.00,weatherlink.com 1.10,2013-11-14 06:36:00,
2013-11-13 23:51:00,43.3,27.0,30.06,WSW,257,10.0,11.0,54,0.00,,,0.00,weatherlink.com 1.10,2013-11-14 06:51:00,